AXCGGARGarmin  id=247  GPS 72 Software Version 2.50|2140330771
HFDTE130813
HFPLTPilot:UNREGISTERED
HFTZOTimezone:2
HFSITSite:
HPGTYGliderType:
HPGIDGliderID:
HFDTM100DATUM:WGS-1984
HFCIDCOMPETITIONID:
HFCCLCOMPETITIONCLASS:
LXCG     ICON:C:\Program Files\CompeGPS\symbols\IconsPlay\cronos.ico
LXCG     COLOR:119000000
I00
B1808173737990N00049430WA0000000137
B1808233737992N00049436WA0000000138
B1808293737995N00049426WA0000000139
B1808353738008N00049428WA0000000140
B1808413738022N00049428WA0000000152
B1808473738026N00049430WA0000000160
B1808533738033N00049432WA0000000167
B1808593738042N00049432WA0000000174
B1809053738051N00049431WA0000000180
B1809113738062N00049434WA0000000183
B1809173738079N00049437WA0000000178
B1809233738099N00049448WA0000000177
B1809293738125N00049462WA0000000169
B1809353738149N00049478WA0000000170
B1809413738174N00049498WA0000000172
B1809473738197N00049511WA0000000181
B1809533738218N00049514WA0000000184
B1809593738237N00049506WA0000000183
B1810053738258N00049498WA0000000185
B1810113738267N00049486WA0000000180
B1810173738274N00049477WA0000000179
B1810233738279N00049469WA0000000179
B1810293738281N00049461WA0000000178
B1810353738286N00049449WA0000000178
B1810413738287N00049441WA0000000176
B1810473738260N00049444WA0000000179
B1810533738229N00049437WA0000000177
B1810593738199N00049429WA0000000175
B1811053738164N00049435WA0000000174
B1811113738127N00049448WA0000000176
B1811173738098N00049444WA0000000177
B1811233738065N00049443WA0000000177
B1811293738037N00049439WA0000000181
B1811353738035N00049434WA0000000186
B1811413738045N00049433WA0000000188
B1811473738060N00049438WA0000000185
B1811533738076N00049451WA0000000189
B1811593738091N00049461WA0000000190
B1812053738110N00049473WA0000000193
B1812113738128N00049485WA0000000195
B1812173738146N00049496WA0000000200
B1812233738165N00049510WA0000000206
B1812293738185N00049524WA0000000211
B1812353738202N00049535WA0000000219
B1812413738206N00049532WA0000000221
B1812473738212N00049527WA0000000222
B1812533738218N00049522WA0000000225
B1812593738223N00049513WA0000000229
B1813053738228N00049507WA0000000229
B1813113738228N00049501WA0000000230
B1813173738198N00049514WA0000000231
B1813233738166N00049533WA0000000238
B1813293738157N00049525WA0000000240
B1813353738159N00049522WA0000000242
B1813413738168N00049521WA0000000243
B1813473738180N00049525WA0000000245
B1813533738196N00049532WA0000000248
B1813593738199N00049529WA0000000251
B1814053738178N00049527WA0000000254
B1814113738150N00049529WA0000000256
B1814173738147N00049525WA0000000256
B1814233738164N00049540WA0000000257
B1814293738183N00049553WA0000000259
B1814353738191N00049550WA0000000260
B1814413738187N00049542WA0000000264
B1814473738168N00049540WA0000000268
B1814533738172N00049539WA0000000270
B1814593738191N00049557WA0000000270
B1815053738198N00049554WA0000000270
B1815113738198N00049549WA0000000270
B1815173738198N00049544WA0000000270
B1815233738199N00049537WA0000000270
B1815293738202N00049531WA0000000271
B1815353738204N00049525WA0000000271
B1815413738206N00049516WA0000000271
B1815473738211N00049507WA0000000271
B1815533738216N00049499WA0000000271
B1815593738221N00049486WA0000000271
B1816053738224N00049473WA0000000271
B1816113738228N00049457WA0000000271
B1816173738232N00049439WA0000000272
B1816233738238N00049422WA0000000272
B1816293738248N00049402WA0000000272
B1816353738256N00049380WA0000000272
B1816413738266N00049359WA0000000272
B1816473738279N00049338WA0000000272
B1816533738290N00049317WA0000000272
B1816593738302N00049293WA0000000272
B1817053738314N00049273WA0000000272
B1817113738325N00049251WA0000000272
B1817173738335N00049230WA0000000272
B1817233738343N00049212WA0000000272
B1817293738349N00049201WA0000000272
B1817353738351N00049188WA0000000272
B1817413738355N00049180WA0000000272
B1817473738327N00049179WA0000000272
B1817533738283N00049265WA0000000178
B1817593738255N00049329WA0000000180
B1818053738233N00049388WA0000000178
B1818113738217N00049450WA0000000179
B1818173738220N00049500WA0000000181
B1818233738226N00049507WA0000000185
B1818293738226N00049500WA0000000189
B1818353738227N00049493WA0000000192
B1818413738226N00049484WA0000000198
B1818473738227N00049477WA0000000203
B1818533738224N00049472WA0000000208
B1818593738224N00049467WA0000000212
B1819053738224N00049462WA0000000212
B1819113738224N00049457WA0000000209
B1819173738222N00049451WA0000000205
B1819233738219N00049445WA0000000204
B1819293738192N00049446WA0000000204
B1819353738155N00049455WA0000000205
B1819413738136N00049448WA0000000207
B1819473738131N00049444WA0000000206
B1819533738115N00049437WA0000000206
B1819593738078N00049440WA0000000207
B1820053738041N00049444WA0000000209
B1820113738029N00049437WA0000000212
B1820173738027N00049432WA0000000214
B1820233738025N00049428WA0000000214
B1820293738022N00049418WA0000000215
B1820353738020N00049413WA0000000218
B1820413738022N00049407WA0000000219
B1820473738024N00049401WA0000000224
B1820533738023N00049396WA0000000225
B1820593738023N00049391WA0000000226
B1821053738023N00049388WA0000000229
B1821113738025N00049385WA0000000229
B1821173738028N00049382WA0000000231
B1821233738032N00049377WA0000000232
B1821293738034N00049372WA0000000229
B1821353738038N00049367WA0000000228
B1821413738041N00049362WA0000000226
B1821473738040N00049355WA0000000223
B1821533738039N00049348WA0000000225
B1821593738041N00049345WA0000000225
B1822053738042N00049341WA0000000221
B1822113738045N00049336WA0000000218
B1822173738049N00049332WA0000000215
B1822233738054N00049326WA0000000211
B1822293738056N00049320WA0000000207
B1822353738059N00049314WA0000000201
B1822413738069N00049319WA0000000193
B1822473738084N00049350WA0000000187
B1822533738083N00049406WA0000000183
B1822593738093N00049446WA0000000179
B1823053738108N00049467WA0000000180
B1823113738121N00049476WA0000000180
B1823173738134N00049488WA0000000181
B1823233738149N00049502WA0000000188
B1823293738162N00049512WA0000000193
B1823353738177N00049523WA0000000199
B1823413738195N00049543WA0000000202
B1823473738210N00049552WA0000000212
B1823533738215N00049547WA0000000215
B1823593738217N00049543WA0000000219
B1824053738221N00049541WA0000000224
B1824113738223N00049537WA0000000230
B1824173738226N00049535WA0000000233
B1824233738230N00049531WA0000000234
B1824293738236N00049529WA0000000236
B1824353738242N00049527WA0000000237
B1824413738245N00049524WA0000000238
B1824473738250N00049521WA0000000241
B1824533738252N00049519WA0000000242
B1824593738255N00049515WA0000000242
B1825053738258N00049510WA0000000242
B1825113738259N00049503WA0000000244
B1825173738264N00049499WA0000000242
B1825233738267N00049493WA0000000241
B1825293738270N00049487WA0000000239
B1825353738272N00049482WA0000000239
B1825413738273N00049476WA0000000240
B1825473738278N00049472WA0000000238
B1825533738283N00049468WA0000000233
B1825593738286N00049462WA0000000229
B1826053738291N00049456WA0000000224
B1826113738295N00049447WA0000000222
B1826173738297N00049440WA0000000222
B1826233738302N00049433WA0000000225
B1826293738305N00049430WA0000000230
B1826353738304N00049428WA0000000229
B1826413738307N00049427WA0000000225
B1826473738311N00049422WA0000000217
B1826533738315N00049413WA0000000211
B1826593738320N00049401WA0000000205
B1827053738328N00049391WA0000000204
B1827113738335N00049383WA0000000201
B1827173738343N00049370WA0000000185
B1827233738349N00049355WA0000000175
B1827293738354N00049343WA0000000167
B1827353738364N00049344WA0000000162
B1827413738381N00049376WA0000000152
B1827473738360N00049432WA0000000144
B1827533738322N00049460WA0000000145
B1827593738285N00049483WA0000000147
B1828053738252N00049490WA0000000150
B1828113738221N00049488WA0000000153
B1828173738191N00049483WA0000000157
B1828233738160N00049477WA0000000163
B1828293738132N00049468WA0000000165
B1828353738108N00049460WA0000000168
B1828413738085N00049453WA0000000169
B1828473738062N00049442WA0000000175
B1828533738050N00049429WA0000000180
B1828593738043N00049422WA0000000182
B1829053738041N00049415WA0000000182
B1829113738035N00049403WA0000000180
B1829173738027N00049391WA0000000179
B1829233738015N00049378WA0000000179
B1829293738008N00049367WA0000000180
B1829353738017N00049378WA0000000177
B1829413738028N00049393WA0000000178
B1829473738041N00049408WA0000000178
B1829533738052N00049417WA0000000180
B1829593738062N00049422WA0000000182
B1830053738071N00049426WA0000000182
B1830113738080N00049431WA0000000182
B1830173738089N00049435WA0000000179
B1830233738100N00049441WA0000000179
B1830293738111N00049451WA0000000181
B1830353738121N00049458WA0000000184
B1830413738133N00049471WA0000000186
B1830473738146N00049489WA0000000190
B1830533738160N00049508WA0000000197
B1830593738174N00049526WA0000000203
B1831053738189N00049538WA0000000210
B1831113738198N00049537WA0000000216
B1831173738203N00049535WA0000000222
B1831233738205N00049531WA0000000223
B1831293738211N00049528WA0000000229
B1831353738220N00049529WA0000000233
B1831413738226N00049528WA0000000234
B1831473738231N00049525WA0000000236
B1831533738236N00049522WA0000000238
B1831593738242N00049519WA0000000241
B1832053738246N00049518WA0000000240
B1832113738251N00049514WA0000000240
B1832173738256N00049511WA0000000240
B1832233738260N00049505WA0000000241
B1832293738264N00049501WA0000000244
B1832353738266N00049500WA0000000246
B1832413738265N00049497WA0000000245
B1832473738264N00049490WA0000000243
B1832533738264N00049484WA0000000244
B1832593738268N00049479WA0000000248
B1833053738273N00049473WA0000000254
B1833113738276N00049466WA0000000261
B1833173738278N00049462WA0000000262
B1833233738280N00049459WA0000000262
B1833293738282N00049456WA0000000258
B1833353738285N00049447WA0000000252
B1833413738292N00049441WA0000000258
B1833473738295N00049437WA0000000258
B1833533738296N00049431WA0000000257
B1833593738299N00049429WA0000000251
B1834053738306N00049421WA0000000242
B1834113738317N00049410WA0000000229
B1834173738326N00049400WA0000000219
B1834233738332N00049389WA0000000204
B1834293738335N00049374WA0000000203
B1834353738339N00049369WA0000000202
B1834413738340N00049361WA0000000194
B1834473738347N00049355WA0000000185
B1834533738356N00049348WA0000000180
B1834593738364N00049344WA0000000179
B1835053738370N00049340WA0000000178
B1835113738374N00049335WA0000000177
B1835173738379N00049328WA0000000173
B1835233738381N00049320WA0000000170
B1835293738352N00049326WA0000000166
B1835353738321N00049371WA0000000163
B1835413738295N00049425WA0000000155
B1835473738261N00049468WA0000000155
B1835533738226N00049490WA0000000161
B1835593738194N00049494WA0000000165
B1836053738163N00049492WA0000000169
B1836113738135N00049485WA0000000174
B1836173738118N00049477WA0000000178
B1836233738123N00049477WA0000000177
B1836293738133N00049485WA0000000182
B1836353738146N00049498WA0000000187
B1836413738160N00049522WA0000000194
B1836473738176N00049546WA0000000201
B1836533738185N00049548WA0000000210
B1836593738188N00049545WA0000000219
B1837053738189N00049543WA0000000231
B1837113738192N00049543WA0000000238
B1837173738193N00049541WA0000000242
B1837233738180N00049538WA0000000246
B1837293738147N00049554WA0000000248
B1837353738136N00049552WA0000000249
B1837413738138N00049550WA0000000251
B1837473738143N00049549WA0000000252
B1837533738151N00049550WA0000000254
B1837593738164N00049558WA0000000257
B1838053738178N00049567WA0000000261
B1838113738180N00049565WA0000000266
B1838173738181N00049559WA0000000274
B1838233738182N00049558WA0000000281
B1838293738184N00049555WA0000000283
B1838353738182N00049554WA0000000283
B1838413738184N00049551WA0000000290
B1838473738185N00049546WA0000000294
B1838533738190N00049542WA0000000301
B1838593738196N00049536WA0000000311
B1839053738200N00049529WA0000000316
B1839113738203N00049521WA0000000323
B1839173738202N00049512WA0000000329
B1839233738203N00049504WA0000000338
B1839293738204N00049495WA0000000346
B1839353738205N00049490WA0000000357
B1839413738206N00049488WA0000000363
B1839473738204N00049479WA0000000365
B1839533738199N00049471WA0000000370
B1839593738196N00049461WA0000000371
B1840053738195N00049453WA0000000375
B1840113738196N00049442WA0000000372
B1840173738201N00049439WA0000000373
B1840233738199N00049429WA0000000368
B1840293738201N00049414WA0000000365
B1840353738211N00049406WA0000000370
B1840413738222N00049399WA0000000374
B1840473738231N00049390WA0000000383
B1840533738238N00049381WA0000000389
B1840593738244N00049368WA0000000386
B1841053738249N00049356WA0000000389
B1841113738253N00049344WA0000000390
B1841173738260N00049329WA0000000387
B1841233738265N00049312WA0000000387
B1841293738268N00049304WA0000000379
B1841353738271N00049289WA0000000374
B1841413738273N00049273WA0000000371
B1841473738278N00049255WA0000000370
B1841533738283N00049238WA0000000365
B1841593738289N00049229WA0000000355
B1842053738296N00049217WA0000000336
B1842113738299N00049199WA0000000322
B1842173738300N00049179WA0000000310
B1842233738298N00049157WA0000000300
B1842293738295N00049141WA0000000284
B1842353738292N00049123WA0000000268
B1842413738290N00049103WA0000000252
B1842473738286N00049092WA0000000244
B1842533738279N00049084WA0000000233
B1842593738254N00049080WA0000000219
B1843053738215N00049088WA0000000211
B1843113738182N00049141WA0000000198
B1843173738153N00049201WA0000000190
B1843233738118N00049257WA0000000184
B1843293738081N00049306WA0000000180
B1843353738051N00049358WA0000000178
B1843413738034N00049417WA0000000178
B1843473738042N00049464WA0000000181
B1843533738054N00049496WA0000000187
B1843593738061N00049496WA0000000192
B1844053738071N00049487WA0000000189
B1844113738086N00049481WA0000000186
B1844173738105N00049481WA0000000182
B1844233738124N00049486WA0000000186
B1844293738134N00049491WA0000000192
B1844353738138N00049489WA0000000200
B1844413738145N00049491WA0000000205
B1844473738151N00049490WA0000000212
B1844533738156N00049490WA0000000217
B1844593738162N00049490WA0000000222
B1845053738166N00049490WA0000000226
B1845113738168N00049486WA0000000229
B1845173738171N00049481WA0000000232
B1845233738174N00049478WA0000000236
B1845293738177N00049474WA0000000239
B1845353738181N00049469WA0000000240
B1845413738184N00049464WA0000000241
B1845473738184N00049458WA0000000234
B1845533738184N00049450WA0000000228
B1845593738182N00049447WA0000000227
B1846053738187N00049449WA0000000226
B1846113738202N00049479WA0000000232
B1846173738217N00049505WA0000000241
B1846233738223N00049507WA0000000243
B1846293738225N00049505WA0000000246
B1846353738226N00049500WA0000000248
B1846413738227N00049497WA0000000248
B1846473738227N00049492WA0000000245
B1846533738203N00049488WA0000000241
B1846593738170N00049491WA0000000240
B1847053738159N00049482WA0000000242
B1847113738158N00049477WA0000000241
B1847173738150N00049465WA0000000242
B1847233738142N00049455WA0000000244
B1847293738151N00049461WA0000000247
B1847353738160N00049465WA0000000251
B1847413738163N00049459WA0000000251
B1847473738157N00049448WA0000000254
B1847533738149N00049434WA0000000257
B1847593738139N00049423WA0000000261
B1848053738129N00049411WA0000000261
B1848113738120N00049397WA0000000261
B1848173738113N00049385WA0000000261
B1848233738103N00049373WA0000000259
B1848293738091N00049361WA0000000254
B1848353738078N00049347WA0000000253
B1848413738067N00049336WA0000000251
B1848473738058N00049325WA0000000250
B1848533738050N00049313WA0000000244
B1848593738043N00049302WA0000000237
B1849053738034N00049290WA0000000231
B1849113738003N00049296WA0000000226
B1849173737990N00049351WA0000000220
B1849233738003N00049378WA0000000218
B1849293738001N00049435WA0000000219
B1849353738006N00049482WA0000000221
B1849413738007N00049480WA0000000223
B1849473738008N00049474WA0000000226
B1849533738009N00049470WA0000000228
B1849593738010N00049466WA0000000230
B1850053738009N00049461WA0000000231
B1850113738009N00049457WA0000000231
B1850173738016N00049463WA0000000231
B1850233738029N00049489WA0000000234
B1850293738043N00049521WA0000000238
B1850353738054N00049530WA0000000239
B1850413738059N00049530WA0000000244
B1850473738063N00049527WA0000000247
B1850533738067N00049523WA0000000251
B1850593738073N00049518WA0000000252
B1851053738082N00049517WA0000000252
B1851113738094N00049518WA0000000254
B1851173738107N00049521WA0000000259
B1851233738117N00049521WA0000000264
B1851293738124N00049518WA0000000271
B1851353738129N00049513WA0000000276
B1851413738128N00049505WA0000000284
B1851473738125N00049499WA0000000285
B1851533738123N00049491WA0000000289
B1851593738122N00049480WA0000000289
B1852053738120N00049465WA0000000296
B1852113738117N00049453WA0000000300
B1852173738112N00049440WA0000000305
B1852233738110N00049427WA0000000307
B1852293738108N00049413WA0000000314
B1852353738106N00049400WA0000000319
B1852413738106N00049388WA0000000324
B1852473738105N00049373WA0000000329
B1852533738103N00049358WA0000000333
B1852593738100N00049342WA0000000335
B1853053738096N00049329WA0000000337
B1853113738091N00049320WA0000000339
B1853173738088N00049309WA0000000339
B1853233738088N00049296WA0000000338
B1853293738087N00049281WA0000000331
B1853353738082N00049264WA0000000323
B1853413738076N00049252WA0000000315
B1853473738072N00049238WA0000000298
B1853533738067N00049215WA0000000287
B1853593738060N00049192WA0000000274
B1854053738054N00049171WA0000000257
B1854113738049N00049150WA0000000241
B1854173738045N00049131WA0000000226
B1854233738046N00049112WA0000000214
B1854293738045N00049096WA0000000202
B1854353738035N00049093WA0000000192
B1854413738003N00049135WA0000000178
B1854473737999N00049199WA0000000171
B1854533738005N00049255WA0000000166
B1854593738020N00049295WA0000000163
B1855053738024N00049294WA0000000162
B1855113738021N00049286WA0000000159
B1855173738014N00049278WA0000000155
B1855233738015N00049273WA0000000148
B1855293738018N00049267WA0000000143
B1855353738015N00049260WA0000000139
B1855413738020N00049253WA0000000132
B1855473738018N00049243WA0000000129
B1855533738025N00049247WA0000000124
B1855593738041N00049282WA0000000118
B1856053738058N00049309WA0000000115
B1856113738074N00049344WA0000000112
B1856173738095N00049372WA0000000111
B1856233738107N00049381WA0000000110
B1856293738089N00049372WA0000000111
B1856353738074N00049364WA0000000108
B1856413738067N00049355WA0000000107
B1856473738062N00049344WA0000000103
B1856533738072N00049345WA0000000101
B1856593738083N00049346WA0000000099
B1857053738093N00049351WA0000000092
B1857113738087N00049340WA0000000084
B1857173738096N00049332WA0000000080
B1857233738103N00049327WA0000000078
LXCG     VERSION:5.7
GAA23DE95B42FE597E08CEAFFD27C108348E8CA0513ECDBCDA49FA755F326397B35579
GEA8CB34CE48C694DFD6AC7EBBED6648C77FE0BD13E91DDE25C28DB33E270E168141
GE2C20807D7B94A5AE57819D7A713440654B8CFDEBA262AA73B7B638F79A7D318EB3
G1ED19C63C70F6C4AEF9B61FBCFDB3F05F2710E9597B9A2B6F410BA7F21FCF